Time;durP1;ratioP1;P1;durP2;ratioP2;P2;SDS_P1;SDS_P2;PMS_P1;PMS_P2;Temp;Humidity;BMP_temperature;BMP_pressure;BME280_temperature;BME280_humidity;BME280_pressure;Samples;Min_cycle;Max_cycle;Signal;HPM_P1;HPM_P2
2022/11/01 00:01:02;;;;;;;;;;;;;;;;;;5091982;28;19927;-56
2022/11/01 00:03:28;;;;;;;;;;;;;;;;;;5099986;28;19939;-53
2022/11/01 00:05:55;;;;;;;;;;;;;;;;;;5112176;28;19931;-53
2022/11/01 00:08:21;;;;;;;;;;;;;;;;;;5112139;28;19928;-57
2022/11/01 00:10:48;;;;;;;;;;;;;;;;;;5112391;28;20335;-56
2022/11/01 00:13:14;;;;;;;;;;;;;;;;;;5112304;28;20338;-55
2022/11/01 00:15:41;;;;;;;;;;;;;;;;;;5111938;28;19923;-56
2022/11/01 00:18:09;;;;;;;;;;;;;;;;;;5111994;28;20377;-57
2022/11/01 00:20:36;;;;;;;;;;;;;;;;;;5112142;28;19924;-58
2022/11/01 00:23:03;;;;;;;;;;;;;;;;;;5112134;28;20385;-56
2022/11/01 00:25:29;;;;;;;;;;;;;;;;;;5113861;28;20590;-55
2022/11/01 00:27:56;;;;;;;;;;;;;;;;;;5115954;28;19924;-55
2022/11/01 00:30:22;;;;;;;;;;;;;;;;;;5115404;28;19975;-54
2022/11/01 00:32:49;;;;;;;;;;;;;;;;;;5115572;28;20366;-56
2022/11/01 00:35:17;;;;;;;;;;;;;;;;;;5115224;28;19928;-54
2022/11/01 00:37:43;;;;;;;;;;;;;;;;;;5115710;27;19932;-56
2022/11/01 00:40:11;;;;;;;;;;;;;;;;;;5115289;28;19924;-51
2022/11/01 00:42:37;;;;;;;;;;;;;;;;;;5115500;28;19993;-55
2022/11/01 00:45:05;;;;;;;;;;;;;;;;;;5115011;28;19924;-52
2022/11/01 00:47:31;;;;;;;;;;;;;;;;;;5115255;27;19931;-56
2022/11/01 00:49:58;;;;;;;;;;;;;;;;;;5115221;28;19930;-55
2022/11/01 00:52:26;;;;;;;;;;;;;;;;;;5115258;28;19928;-55
2022/11/01 00:54:52;;;;;;;;;;;;;;;;;;5115135;28;19924;-52
2022/11/01 00:57:19;;;;;;;;;;;;;;;;;;5114946;28;20108;-55
2022/11/01 00:59:45;;;;;;;;;;;;;;;;;;5114922;28;19931;-54
2022/11/01 01:02:12;;;;;;;;;;;;;;;;;;5115004;28;20298;-53
2022/11/01 01:04:41;;;;;;;;;;;;;;;;;;5113803;28;20000;-54
2022/11/01 01:07:08;;;;;;;;;;;;;;;;;;5114668;27;19924;-53
2022/11/01 01:09:36;;;;;;;;;;;;;;;;;;5114785;28;19924;-55
2022/11/01 01:12:04;;;;;;;;;;;;;;;;;;5114813;28;19931;-53
2022/11/01 01:14:31;;;;;;;;;;;;;;;;;;5114517;28;20020;-55
2022/11/01 01:16:57;;;;;;;;;;;;;;;;;;5114559;28;19981;-52
2022/11/01 01:19:24;;;;;;;;;;;;;;;;;;5114393;28;19923;-54
2022/11/01 01:21:50;;;;;;;;;;;;;;;;;;5114806;28;19924;-54
2022/11/01 01:24:17;;;;;;;;;;;;;;;;;;5114374;28;19968;-52
2022/11/01 01:26:45;;;;;;;;;;;;;;;;;;5114565;28;20380;-51
2022/11/01 01:29:11;;;;;;;;;;;;;;;;;;5114283;27;19927;-55
2022/11/01 01:31:38;;;;;;;;;;;;;;;;;;5114275;28;20149;-54
2022/11/01 01:34:05;;;;;;;;;;;;;;;;;;5113917;28;19927;-54
2022/11/01 01:36:32;;;;;;;;;;;;;;;;;;5114191;28;19931;-55
2022/11/01 01:38:58;;;;;;;;;;;;;;;;;;5114112;28;19931;-54
2022/11/01 01:44:32;;;;;;;;;;;;;;;;;;5102911;28;19924;-56
2022/11/01 01:47:00;;;;;;;;;;;;;;;;;;5114230;28;20296;-55
2022/11/01 01:49:27;;;;;;;;;;;;;;;;;;5113908;28;19923;-55
2022/11/01 01:51:54;;;;;;;;;;;;;;;;;;5114029;28;19967;-55
2022/11/01 01:54:20;;;;;;;;;;;;;;;;;;5113811;28;19927;-53
2022/11/01 01:56:48;;;;;;;;;;;;;;;;;;5113688;28;19924;-55
2022/11/01 01:59:14;;;;;;;;;;;;;;;;;;5113979;28;20296;-52
2022/11/01 02:01:41;;;;;;;;;;;;;;;;;;5113614;28;19928;-56
2022/11/01 02:04:12;;;;;;;;;;;;;;;;;;5113720;28;20377;-55
2022/11/01 02:06:39;;;;;;;;;;;;;;;;;;5113696;28;20385;-54
2022/11/01 02:09:07;;;;;;;;;;;;;;;;;;5113610;28;19923;-56
2022/11/01 02:11:35;;;;;;;;;;;;;;;;;;5113497;28;20376;-55
2022/11/01 02:14:02;;;;;;;;;;;;;;;;;;5113486;28;19969;-56
2022/11/01 02:16:35;;;;;;;;;;;;;;;;;;5113419;28;19949;-56
2022/11/01 02:19:07;;;;;;;;;;;;;;;;;;5113405;28;19977;-56
2022/11/01 02:21:48;;;;;;;;;;;;;;;;;;5113415;28;19928;-56
2022/11/01 02:24:32;;;;;;;;;;;;;;;;;;5113284;28;19932;-56
2022/11/01 02:27:17;;;;;;;;;;;;;;;;;;5113170;28;20372;-55
2022/11/01 02:30:07;;;;;;;;;;;;;;;;;;5113160;28;20018;-54
2022/11/01 02:32:46;;;;;;;;;;;;;;;;;;5113151;28;19983;-52
2022/11/01 02:35:16;;;;;;;;;;;;;;;;;;5113015;28;19923;-54
2022/11/01 02:37:47;;;;;;;;;;;;;;;;;;5113197;28;19948;-54
2022/11/01 02:40:14;;;;;;;;;;;;;;;;;;5113037;28;20354;-54
2022/11/01 02:42:43;;;;;;;;;;;;;;;;;;5113012;28;19928;-56
2022/11/01 02:45:26;;;;;;;;;;;;;;;;;;5112867;28;20446;-56
2022/11/01 02:47:54;;;;;;;;;;;;;;;;;;5112578;28;19923;-54
2022/11/01 02:50:21;;;;;;;;;;;;;;;;;;5112683;28;19972;-52
2022/11/01 02:52:48;;;;;;;;;;;;;;;;;;5112927;28;19923;-55
2022/11/01 02:55:28;;;;;;;;;;;;;;;;;;5112543;28;19973;-55
2022/11/01 02:57:55;;;;;;;;;;;;;;;;;;5112996;28;19978;-56
2022/11/01 03:00:23;;;;;;;;;;;;;;;;;;5112568;28;19931;-56
2022/11/01 03:02:52;;;;;;;;;;;;;;;;;;5112887;28;20455;-53
2022/11/01 03:05:25;;;;;;;;;;;;;;;;;;5112415;28;19924;-56
2022/11/01 03:07:54;;;;;;;;;;;;;;;;;;5112805;28;19928;-55
2022/11/01 03:10:21;;;;;;;;;;;;;;;;;;5112589;28;19932;-55
2022/11/01 03:12:51;;;;;;;;;;;;;;;;;;5112517;28;19928;-55
2022/11/01 03:15:20;;;;;;;;;;;;;;;;;;5112699;28;20283;-54
2022/11/01 03:17:50;;;;;;;;;;;;;;;;;;5112224;28;19923;-56
2022/11/01 03:20:20;;;;;;;;;;;;;;;;;;5112431;28;19969;-57
2022/11/01 03:22:51;;;;;;;;;;;;;;;;;;5112752;28;20350;-56
2022/11/01 03:25:39;;;;;;;;;;;;;;;;;;5112245;28;19923;-53
2022/11/01 03:28:09;;;;;;;;;;;;;;;;;;5112478;28;19924;-56
2022/11/01 03:30:36;;;;;;;;;;;;;;;;;;5112151;28;19931;-56
2022/11/01 03:33:02;;;;;;;;;;;;;;;;;;5112466;28;20430;-56
2022/11/01 03:35:33;;;;;;;;;;;;;;;;;;5112300;28;20449;-56
2022/11/01 03:38:02;;;;;;;;;;;;;;;;;;5112346;28;20005;-56
2022/11/01 03:40:29;;;;;;;;;;;;;;;;;;5112317;28;19993;-56
2022/11/01 03:42:59;;;;;;;;;;;;;;;;;;5112055;28;19924;-56
2022/11/01 03:45:26;;;;;;;;;;;;;;;;;;5111689;28;19992;-56
2022/11/01 03:47:53;;;;;;;;;;;;;;;;;;5111992;28;19976;-55
2022/11/01 03:50:21;;;;;;;;;;;;;;;;;;5112226;28;19980;-56
2022/11/01 03:52:47;;;;;;;;;;;;;;;;;;5112077;28;19970;-55
2022/11/01 03:55:18;;;;;;;;;;;;;;;;;;5111977;28;19976;-54
2022/11/01 03:57:45;;;;;;;;;;;;;;;;;;5111943;28;19988;-52
2022/11/01 04:00:14;;;;;;;;;;;;;;;;;;5113538;28;20003;-52
2022/11/01 04:02:40;;;;;;;;;;;;;;;;;;5115888;28;20111;-53
2022/11/01 04:05:07;;;;;;;;;;;;;;;;;;5115806;27;19928;-54
2022/11/01 04:07:34;;;;;;;;;;;;;;;;;;5115315;28;20388;-55
2022/11/01 04:10:00;;;;;;;;;;;;;;;;;;5115781;28;20376;-57
2022/11/01 04:12:28;;;;;;;;;;;;;;;;;;5115614;28;19976;-56
2022/11/01 04:20:35;;;;;;;;;;;;;;;;;;5115676;28;19976;-55
2022/11/01 04:23:02;;;;;;;;;;;;;;;;;;5116241;28;20497;-54
2022/11/01 04:25:29;;;;;;;;;;;;;;;;;;5115756;28;20353;-54
2022/11/01 04:27:57;;;;;;;;;;;;;;;;;;5115431;28;19928;-52
2022/11/01 04:30:24;;;;;;;;;;;;;;;;;;5113945;28;20025;-56
2022/11/01 04:32:50;;;;;;;;;;;;;;;;;;5114513;27;19923;-55
2022/11/01 04:35:17;;;;;;;;;;;;;;;;;;5114841;28;19935;-54
2022/11/01 04:37:44;;;;;;;;;;;;;;;;;;5115058;28;19977;-53
2022/11/01 04:40:12;;;;;;;;;;;;;;;;;;5115287;28;19924;-55
2022/11/01 04:42:38;;;;;;;;;;;;;;;;;;5115264;28;20300;-56
2022/11/01 04:45:08;;;;;;;;;;;;;;;;;;5115039;28;19924;-55
2022/11/01 04:47:34;;;;;;;;;;;;;;;;;;5114857;28;19934;-56
2022/11/01 04:50:01;;;;;;;;;;;;;;;;;;5115384;28;20385;-55
2022/11/01 04:52:28;;;;;;;;;;;;;;;;;;5115076;28;19927;-55
2022/11/01 04:54:54;;;;;;;;;;;;;;;;;;5115286;28;20339;-53
2022/11/01 04:57:23;;;;;;;;;;;;;;;;;;5115155;28;19923;-57
2022/11/01 04:59:50;;;;;;;;;;;;;;;;;;5115040;28;20369;-54
2022/11/01 05:02:18;;;;;;;;;;;;;;;;;;5114749;28;20369;-56
2022/11/01 05:04:45;;;;;;;;;;;;;;;;;;5114657;28;19931;-56
2022/11/01 05:07:11;;;;;;;;;;;;;;;;;;5114775;28;19924;-54
2022/11/01 05:09:38;;;;;;;;;;;;;;;;;;5114761;28;19923;-55
2022/11/01 05:12:04;;;;;;;;;;;;;;;;;;5114209;28;19976;-54
2022/11/01 05:14:31;;;;;;;;;;;;;;;;;;5114592;28;20281;-53
2022/11/01 05:16:58;;;;;;;;;;;;;;;;;;5114422;28;19928;-55
2022/11/01 05:19:26;;;;;;;;;;;;;;;;;;5114644;28;20047;-53
2022/11/01 05:21:53;;;;;;;;;;;;;;;;;;5114434;28;19934;-56
2022/11/01 05:24:19;;;;;;;;;;;;;;;;;;5114344;28;19928;-53
2022/11/01 05:26:46;;;;;;;;;;;;;;;;;;5114424;28;19977;-58
2022/11/01 05:29:12;;;;;;;;;;;;;;;;;;5114314;28;19928;-55
2022/11/01 05:31:39;;;;;;;;;;;;;;;;;;5114459;28;19949;-55
2022/11/01 05:34:05;;;;;;;;;;;;;;;;;;5113981;27;19928;-56
2022/11/01 05:36:33;;;;;;;;;;;;;;;;;;5114644;28;19924;-56
2022/11/01 05:39:00;;;;;;;;;;;;;;;;;;5114018;28;20377;-56
2022/11/01 05:41:26;;;;;;;;;;;;;;;;;;5114505;28;19949;-56
2022/11/01 05:43:53;;;;;;;;;;;;;;;;;;5113681;28;19980;-57
2022/11/01 05:46:19;;;;;;;;;;;;;;;;;;5114029;28;19931;-51
2022/11/01 05:48:46;;;;;;;;;;;;;;;;;;5113924;28;19924;-55
2022/11/01 05:51:13;;;;;;;;;;;;;;;;;;5113825;28;19927;-54
2022/11/01 05:53:40;;;;;;;;;;;;;;;;;;5113718;27;19923;-55
2022/11/01 05:56:07;;;;;;;;;;;;;;;;;;5113664;28;19969;-54
2022/11/01 05:58:34;;;;;;;;;;;;;;;;;;5113576;28;19932;-53
2022/11/01 06:01:00;;;;;;;;;;;;;;;;;;5113730;28;20346;-54
2022/11/01 06:03:27;;;;;;;;;;;;;;;;;;5113851;28;19924;-53
2022/11/01 06:05:54;;;;;;;;;;;;;;;;;;5113554;28;19924;-55
2022/11/01 06:08:20;;;;;;;;;;;;;;;;;;5113506;28;20365;-54
2022/11/01 06:10:48;;;;;;;;;;;;;;;;;;5113530;28;20369;-56
2022/11/01 06:13:15;;;;;;;;;;;;;;;;;;5113502;28;19939;-56
2022/11/01 06:15:42;;;;;;;;;;;;;;;;;;5113247;28;19924;-56
2022/11/01 06:18:08;;;;;;;;;;;;;;;;;;5113339;28;19976;-56
2022/11/01 06:20:35;;;;;;;;;;;;;;;;;;5113463;27;19961;-56
2022/11/01 06:23:07;;;;;;;;;;;;;;;;;;5112618;28;19980;-56
2022/11/01 06:25:34;;;;;;;;;;;;;;;;;;5113046;28;19992;-53
2022/11/01 06:28:02;;;;;;;;;;;;;;;;;;5113106;28;19927;-54
2022/11/01 06:30:29;;;;;;;;;;;;;;;;;;5113303;28;19923;-55
2022/11/01 06:32:58;;;;;;;;;;;;;;;;;;5113080;28;19976;-56
2022/11/01 06:35:26;;;;;;;;;;;;;;;;;;5113208;28;19984;-54
2022/11/01 06:37:53;;;;;;;;;;;;;;;;;;5112975;28;19978;-54
2022/11/01 06:40:19;;;;;;;;;;;;;;;;;;5113451;28;20329;-53
2022/11/01 06:42:46;;;;;;;;;;;;;;;;;;5113100;28;19924;-54
2022/11/01 06:45:14;;;;;;;;;;;;;;;;;;5112772;28;19931;-54
2022/11/01 06:47:46;;;;;;;;;;;;;;;;;;5112924;28;19967;-53
2022/11/01 06:50:12;;;;;;;;;;;;;;;;;;5113173;28;20015;-56
2022/11/01 06:52:39;;;;;;;;;;;;;;;;;;5112175;28;19924;-55
2022/11/01 06:55:06;;;;;;;;;;;;;;;;;;5112863;28;19939;-53
2022/11/01 06:57:33;;;;;;;;;;;;;;;;;;5113310;28;20335;-55
2022/11/01 06:59:59;;;;;;;;;;;;;;;;;;5112897;28;19927;-54
2022/11/01 07:02:27;;;;;;;;;;;;;;;;;;5112907;28;19924;-56
2022/11/01 07:04:54;;;;;;;;;;;;;;;;;;5112641;28;19932;-57
2022/11/01 07:07:20;;;;;;;;;;;;;;;;;;5113032;28;19985;-55
2022/11/01 07:09:47;;;;;;;;;;;;;;;;;;5112786;28;19930;-52
2022/11/01 07:12:13;;;;;;;;;;;;;;;;;;5112715;28;19924;-53
2022/11/01 07:14:40;;;;;;;;;;;;;;;;;;5112420;28;20014;-53
2022/11/01 07:17:06;;;;;;;;;;;;;;;;;;5112709;28;19931;-56
2022/11/01 07:19:34;;;;;;;;;;;;;;;;;;5112493;28;19923;-54
2022/11/01 07:22:01;;;;;;;;;;;;;;;;;;5112603;28;19924;-55
2022/11/01 07:24:28;;;;;;;;;;;;;;;;;;5112582;28;19924;-55
2022/11/01 07:26:54;;;;;;;;;;;;;;;;;;5112716;28;19928;-56
2022/11/01 07:29:21;;;;;;;;;;;;;;;;;;5112454;28;19924;-56
2022/11/01 07:31:47;;;;;;;;;;;;;;;;;;5112201;28;19923;-56
2022/11/01 07:34:14;;;;;;;;;;;;;;;;;;5113913;28;19935;-56
2022/11/01 07:36:42;;;;;;;;;;;;;;;;;;5116996;28;20384;-55
2022/11/01 07:39:09;;;;;;;;;;;;;;;;;;5116671;28;19924;-54
2022/11/01 07:41:35;;;;;;;;;;;;;;;;;;5116835;28;19930;-53
2022/11/01 07:44:02;;;;;;;;;;;;;;;;;;5116546;28;19928;-55
2022/11/01 07:46:30;;;;;;;;;;;;;;;;;;5116635;28;19924;-56
2022/11/01 07:48:59;;;;;;;;;;;;;;;;;;5116518;28;19923;-56
2022/11/01 07:51:26;;;;;;;;;;;;;;;;;;5116562;28;20121;-55
2022/11/01 07:53:54;;;;;;;;;;;;;;;;;;5116383;28;19923;-54
2022/11/01 07:56:21;;;;;;;;;;;;;;;;;;5116450;27;20296;-52
2022/11/01 07:58:48;;;;;;;;;;;;;;;;;;5116366;27;20467;-54
2022/11/01 08:01:14;;;;;;;;;;;;;;;;;;5116288;28;19928;-53
2022/11/01 08:03:41;;;;;;;;;;;;;;;;;;5116143;28;19931;-52
2022/11/01 08:06:08;;;;;;;;;;;;;;;;;;5116329;28;19982;-51
2022/11/01 08:08:34;;;;;;;;;;;;;;;;;;5116039;28;20319;-56
2022/11/01 08:11:02;;;;;;;;;;;;;;;;;;5116408;28;19975;-54
2022/11/01 08:13:29;;;;;;;;;;;;;;;;;;5116093;28;19924;-54
2022/11/01 08:15:56;;;;;;;;;;;;;;;;;;5115690;28;19924;-52
2022/11/01 08:18:23;;;;;;;;;;;;;;;;;;5116016;28;19924;-56
2022/11/01 08:20:50;;;;;;;;;;;;;;;;;;5116087;28;20330;-55
2022/11/01 08:23:17;;;;;;;;;;;;;;;;;;5115825;28;19988;-53
2022/11/01 08:25:43;;;;;;;;;;;;;;;;;;5115426;28;19924;-56
2022/11/01 08:28:13;;;;;;;;;;;;;;;;;;5115752;28;19924;-55
2022/11/01 08:30:40;;;;;;;;;;;;;;;;;;5115333;28;19942;-53
2022/11/01 08:33:06;;;;;;;;;;;;;;;;;;5116064;28;20391;-52
2022/11/01 08:35:33;;;;;;;;;;;;;;;;;;5115536;28;20473;-56
2022/11/01 08:38:02;;;;;;;;;;;;;;;;;;5115588;28;19931;-53
2022/11/01 08:40:28;;;;;;;;;;;;;;;;;;5115238;28;19931;-53
2022/11/01 08:42:55;;;;;;;;;;;;;;;;;;5115611;28;20429;-56
2022/11/01 08:45:23;;;;;;;;;;;;;;;;;;5114196;28;19928;-55
2022/11/01 08:47:50;;;;;;;;;;;;;;;;;;5115361;28;19953;-58
2022/11/01 08:50:17;;;;;;;;;;;;;;;;;;5115340;28;19924;-55
2022/11/01 08:52:44;;;;;;;;;;;;;;;;;;5115107;28;19927;-53
2022/11/01 08:55:10;;;;;;;;;;;;;;;;;;5114640;27;19924;-55
2022/11/01 08:57:37;;;;;;;;;;;;;;;;;;5118311;27;19992;-55
2022/11/01 09:00:04;;;;;;;;;;;;;;;;;;5125350;27;19923;-55
2022/11/01 09:02:32;;;;;;;;;;;;;;;;;;5117631;27;19938;-55
2022/11/01 09:05:01;;;;;;;;;;;;;;;;;;5114931;28;19928;-53
2022/11/01 09:07:28;;;;;;;;;;;;;;;;;;5115104;28;20274;-56
2022/11/01 09:09:54;;;;;;;;;;;;;;;;;;5114983;28;19928;-56
2022/11/01 09:12:21;;;;;;;;;;;;;;;;;;5115002;28;20485;-57
2022/11/01 09:14:48;;;;;;;;;;;;;;;;;;5114586;28;19969;-55
2022/11/01 09:17:14;;;;;;;;;;;;;;;;;;5115040;28;19925;-51
2022/11/01 09:19:42;;;;;;;;;;;;;;;;;;5115139;28;19935;-55
2022/11/01 09:22:09;;;;;;;;;;;;;;;;;;5115069;28;20334;-54
2022/11/01 09:24:35;;;;;;;;;;;;;;;;;;5114463;28;19927;-56
2022/11/01 09:27:02;;;;;;;;;;;;;;;;;;5114862;28;19928;-55
2022/11/01 09:29:29;;;;;;;;;;;;;;;;;;5114734;28;19927;-55
2022/11/01 09:31:55;;;;;;;;;;;;;;;;;;5114850;28;19939;-54
2022/11/01 09:34:22;;;;;;;;;;;;;;;;;;5114793;28;19924;-70
2022/11/01 09:36:50;;;;;;;;;;;;;;;;;;5114480;28;20434;-57
2022/11/01 09:39:20;;;;;;;;;;;;;;;;;;5114327;28;19931;-56
2022/11/01 09:41:49;;;;;;;;;;;;;;;;;;5114465;28;19973;-55
2022/11/01 09:44:17;;;;;;;;;;;;;;;;;;5114511;28;20319;-61
2022/11/01 09:46:45;;;;;;;;;;;;;;;;;;5114369;28;19931;-65
2022/11/01 09:49:15;;;;;;;;;;;;;;;;;;5114019;28;19928;-50
2022/11/01 09:51:42;;;;;;;;;;;;;;;;;;5114361;28;19924;-56
2022/11/01 09:54:10;;;;;;;;;;;;;;;;;;5114825;28;19931;-57
2022/11/01 09:56:40;;;;;;;;;;;;;;;;;;5116558;28;20281;-52
2022/11/01 09:59:11;;;;;;;;;;;;;;;;;;5114294;28;19969;-56
2022/11/01 10:01:41;;;;;;;;;;;;;;;;;;5113865;28;19928;-55
2022/11/01 10:04:16;;;;;;;;;;;;;;;;;;5114114;28;20334;-55
2022/11/01 10:06:44;;;;;;;;;;;;;;;;;;5113923;28;20030;-56
2022/11/01 10:09:16;;;;;;;;;;;;;;;;;;5113947;28;19977;-57
2022/11/01 10:11:57;;;;;;;;;;;;;;;;;;5113850;28;19946;-56
2022/11/01 10:14:32;;;;;;;;;;;;;;;;;;5113971;28;19924;-54
2022/11/01 10:17:06;;;;;;;;;;;;;;;;;;5114025;28;20377;-59
2022/11/01 10:19:34;;;;;;;;;;;;;;;;;;5114119;28;20339;-57
2022/11/01 10:22:04;;;;;;;;;;;;;;;;;;5113613;28;19973;-56
2022/11/01 10:24:34;;;;;;;;;;;;;;;;;;5114003;28;19993;-57
2022/11/01 10:27:04;;;;;;;;;;;;;;;;;;5113325;28;19967;-57
2022/11/01 10:29:34;;;;;;;;;;;;;;;;;;5111832;28;20011;-57
2022/11/01 10:32:02;;;;;;;;;;;;;;;;;;5097453;28;20365;-57
2022/11/01 10:34:30;;;;;;;;;;;;;;;;;;5093303;28;19931;-56
2022/11/01 10:37:01;;;;;;;;;;;;;;;;;;5093487;28;20392;-56
2022/11/01 10:39:31;;;;;;;;;;;;;;;;;;5105690;28;19973;-55
2022/11/01 10:42:02;;;;;;;;;;;;;;;;;;5113495;28;20379;-56
2022/11/01 10:44:30;;;;;;;;;;;;;;;;;;5113840;28;19924;-57
2022/11/01 10:46:58;;;;;;;;;;;;;;;;;;5113541;28;19927;-55
2022/11/01 10:49:27;;;;;;;;;;;;;;;;;;5113470;27;19923;-55
2022/11/01 10:51:56;;;;;;;;;;;;;;;;;;5113643;28;19924;-58
2022/11/01 10:54:25;;;;;;;;;;;;;;;;;;5113264;28;19923;-58
2022/11/01 10:56:52;;;;;;;;;;;;;;;;;;5112891;28;19930;-58
2022/11/01 10:59:23;;;;;;;;;;;;;;;;;;5113639;28;19928;-57
2022/11/01 11:01:50;;;;;;;;;;;;;;;;;;5113379;28;19924;-56
2022/11/01 11:04:20;;;;;;;;;;;;;;;;;;5113135;28;19973;-54
2022/11/01 11:06:46;;;;;;;;;;;;;;;;;;5112804;28;19928;-55
2022/11/01 11:09:18;;;;;;;;;;;;;;;;;;5112746;28;19928;-57
2022/11/01 11:11:46;;;;;;;;;;;;;;;;;;5113346;28;19923;-56
2022/11/01 11:14:13;;;;;;;;;;;;;;;;;;5112505;28;19923;-57
2022/11/01 11:16:44;;;;;;;;;;;;;;;;;;5112808;28;19957;-54
2022/11/01 11:19:18;;;;;;;;;;;;;;;;;;5113261;28;19924;-58
2022/11/01 11:21:46;;;;;;;;;;;;;;;;;;5113190;28;19930;-57
2022/11/01 11:24:18;;;;;;;;;;;;;;;;;;5113444;28;20331;-57
2022/11/01 11:26:46;;;;;;;;;;;;;;;;;;5113186;28;19947;-55
2022/11/01 11:29:19;;;;;;;;;;;;;;;;;;5112921;28;19932;-58
2022/11/01 11:31:54;;;;;;;;;;;;;;;;;;5113193;28;20258;-57
2022/11/01 11:34:23;;;;;;;;;;;;;;;;;;5113074;28;19928;-56
2022/11/01 11:36:52;;;;;;;;;;;;;;;;;;5112803;28;19977;-56
2022/11/01 11:39:26;;;;;;;;;;;;;;;;;;5112687;28;20010;-57
2022/11/01 11:41:52;;;;;;;;;;;;;;;;;;5113019;28;19924;-57
2022/11/01 11:44:38;;;;;;;;;;;;;;;;;;5112583;28;19923;-57
2022/11/01 11:47:16;;;;;;;;;;;;;;;;;;5112844;28;19923;-56
2022/11/01 11:49:43;;;;;;;;;;;;;;;;;;5112835;28;20299;-57
2022/11/01 11:52:12;;;;;;;;;;;;;;;;;;5112503;28;19924;-56
2022/11/01 11:54:41;;;;;;;;;;;;;;;;;;5112772;28;19924;-55
2022/11/01 11:57:10;;;;;;;;;;;;;;;;;;5112850;28;20373;-56
2022/11/01 11:59:37;;;;;;;;;;;;;;;;;;5112845;28;20453;-57
2022/11/01 12:02:05;;;;;;;;;;;;;;;;;;5113048;28;19951;-58
2022/11/01 12:04:37;;;;;;;;;;;;;;;;;;5112736;28;19928;-58
2022/11/01 12:07:06;;;;;;;;;;;;;;;;;;5112458;28;19924;-51
2022/11/01 12:09:36;;;;;;;;;;;;;;;;;;5112404;28;19924;-56
2022/11/01 12:12:06;;;;;;;;;;;;;;;;;;5112483;28;19924;-54
2022/11/01 12:14:34;;;;;;;;;;;;;;;;;;5112872;28;19975;-56
2022/11/01 12:17:01;;;;;;;;;;;;;;;;;;5112313;28;19969;-56
2022/11/01 12:19:29;;;;;;;;;;;;;;;;;;5112225;28;20456;-57
2022/11/01 12:21:58;;;;;;;;;;;;;;;;;;5114716;28;19924;-57
2022/11/01 12:24:26;;;;;;;;;;;;;;;;;;5116138;28;19923;-56
2022/11/01 12:26:54;;;;;;;;;;;;;;;;;;5116065;28;20432;-56
2022/11/01 12:29:25;;;;;;;;;;;;;;;;;;5115820;28;20003;-55
2022/11/01 12:31:52;;;;;;;;;;;;;;;;;;5116233;28;19973;-56
2022/11/01 12:34:22;;;;;;;;;;;;;;;;;;5115758;27;19924;-55
2022/11/01 12:36:52;;;;;;;;;;;;;;;;;;5116083;28;19924;-55
2022/11/01 12:39:29;;;;;;;;;;;;;;;;;;5116050;28;20356;-54
2022/11/01 12:41:58;;;;;;;;;;;;;;;;;;5115908;28;20334;-55
2022/11/01 12:44:31;;;;;;;;;;;;;;;;;;5115753;27;19927;-57
2022/11/01 12:46:59;;;;;;;;;;;;;;;;;;5115838;28;19930;-56
2022/11/01 12:49:29;;;;;;;;;;;;;;;;;;5115754;28;19924;-57
2022/11/01 12:51:58;;;;;;;;;;;;;;;;;;5115333;28;19924;-57
2022/11/01 12:54:28;;;;;;;;;;;;;;;;;;5116018;28;19924;-56
2022/11/01 12:56:55;;;;;;;;;;;;;;;;;;5115345;27;20019;-52
2022/11/01 12:59:24;;;;;;;;;;;;;;;;;;5115460;28;19941;-57
2022/11/01 13:01:53;;;;;;;;;;;;;;;;;;5115565;28;20384;-55
2022/11/01 13:04:24;;;;;;;;;;;;;;;;;;5114696;27;19928;-54
2022/11/01 13:06:58;;;;;;;;;;;;;;;;;;5114816;28;19924;-54
2022/11/01 13:09:30;;;;;;;;;;;;;;;;;;5115704;27;19928;-56
2022/11/01 13:11:59;;;;;;;;;;;;;;;;;;5115794;28;19924;-59
2022/11/01 13:14:30;;;;;;;;;;;;;;;;;;5114960;28;19923;-58
2022/11/01 13:17:01;;;;;;;;;;;;;;;;;;5114762;28;20011;-54
2022/11/01 13:19:32;;;;;;;;;;;;;;;;;;5115036;28;19954;-56
2022/11/01 13:22:01;;;;;;;;;;;;;;;;;;5115392;28;19977;-57
2022/11/01 13:24:32;;;;;;;;;;;;;;;;;;5114942;28;19934;-57
2022/11/01 13:27:01;;;;;;;;;;;;;;;;;;5115397;28;20373;-57
2022/11/01 13:29:31;;;;;;;;;;;;;;;;;;5114971;28;19924;-56
2022/11/01 13:32:02;;;;;;;;;;;;;;;;;;5114499;28;19924;-55
2022/11/01 13:34:36;;;;;;;;;;;;;;;;;;5114492;28;19923;-54
2022/11/01 13:37:06;;;;;;;;;;;;;;;;;;5115025;28;19946;-56
2022/11/01 13:39:38;;;;;;;;;;;;;;;;;;5114374;28;19924;-56
2022/11/01 13:42:08;;;;;;;;;;;;;;;;;;5114380;28;19924;-56
2022/11/01 13:44:38;;;;;;;;;;;;;;;;;;5114555;28;19924;-56
2022/11/01 13:47:28;;;;;;;;;;;;;;;;;;5114473;28;19931;-54
2022/11/01 13:50:05;;;;;;;;;;;;;;;;;;5103557;27;20346;-55
2022/11/01 13:52:32;;;;;;;;;;;;;;;;;;5114311;28;19924;-56
2022/11/01 13:55:05;;;;;;;;;;;;;;;;;;5114379;28;20461;-55
2022/11/01 13:57:33;;;;;;;;;;;;;;;;;;5114428;28;19927;-55
2022/11/01 14:00:00;;;;;;;;;;;;;;;;;;5114000;28;19924;-57
2022/11/01 14:02:47;;;;;;;;;;;;;;;;;;5114154;28;19927;-57
2022/11/01 14:05:14;;;;;;;;;;;;;;;;;;5110384;28;19924;-57
2022/11/01 14:07:56;;;;;;;;;;;;;;;;;;5113774;28;20030;-58
2022/11/01 14:10:37;;;;;;;;;;;;;;;;;;5113742;28;19923;-55
2022/11/01 14:13:14;;;;;;;;;;;;;;;;;;5104703;28;19928;-58
2022/11/01 14:15:57;;;;;;;;;;;;;;;;;;5114024;28;20285;-58
2022/11/01 14:18:23;;;;;;;;;;;;;;;;;;5113670;28;19969;-54
2022/11/01 14:20:51;;;;;;;;;;;;;;;;;;5113957;28;19924;-56
2022/11/01 14:23:51;;;;;;;;;;;;;;;;;;5113642;28;19924;-56
2022/11/01 14:26:50;;;;;;;;;;;;;;;;;;5113682;28;19971;-56
2022/11/01 14:29:18;;;;;;;;;;;;;;;;;;5113399;28;19923;-56
2022/11/01 14:31:47;;;;;;;;;;;;;;;;;;5113983;28;19924;-56
2022/11/01 14:34:44;;;;;;;;;;;;;;;;;;5113592;28;19927;-56
2022/11/01 14:37:20;;;;;;;;;;;;;;;;;;5113404;28;20001;-56
2022/11/01 14:39:57;;;;;;;;;;;;;;;;;;5113272;28;19924;-56
2022/11/01 14:42:28;;;;;;;;;;;;;;;;;;5113424;28;19976;-56
2022/11/01 14:44:58;;;;;;;;;;;;;;;;;;5112529;28;19997;-54
2022/11/01 14:47:32;;;;;;;;;;;;;;;;;;5113611;28;20292;-56
2022/11/01 14:50:01;;;;;;;;;;;;;;;;;;5113662;27;19924;-55
2022/11/01 14:52:31;;;;;;;;;;;;;;;;;;5113323;28;19923;-57
2022/11/01 14:55:03;;;;;;;;;;;;;;;;;;5113169;28;20433;-56
2022/11/01 14:57:30;;;;;;;;;;;;;;;;;;5112880;28;19928;-55
2022/11/01 14:59:59;;;;;;;;;;;;;;;;;;5112984;28;19976;-53
2022/11/01 15:02:26;;;;;;;;;;;;;;;;;;5113016;28;19969;-54
2022/11/01 15:04:57;;;;;;;;;;;;;;;;;;5112352;28;20247;-52
2022/11/01 15:07:25;;;;;;;;;;;;;;;;;;5113156;28;19930;-56
2022/11/01 15:09:55;;;;;;;;;;;;;;;;;;5112807;28;19977;-57
2022/11/01 15:12:21;;;;;;;;;;;;;;;;;;5113142;28;19925;-53
2022/11/01 15:14:49;;;;;;;;;;;;;;;;;;5112953;28;20426;-57
2022/11/01 15:17:20;;;;;;;;;;;;;;;;;;5113034;28;20362;-55
2022/11/01 15:19:47;;;;;;;;;;;;;;;;;;5112835;28;19924;-56
2022/11/01 15:22:14;;;;;;;;;;;;;;;;;;5113194;28;19923;-56
2022/11/01 15:24:41;;;;;;;;;;;;;;;;;;5113341;28;20380;-56
2022/11/01 15:27:13;;;;;;;;;;;;;;;;;;5112914;28;19927;-54
2022/11/01 15:29:42;;;;;;;;;;;;;;;;;;5112175;28;19932;-56
2022/11/01 15:32:20;;;;;;;;;;;;;;;;;;5112714;28;19928;-56
2022/11/01 15:34:52;;;;;;;;;;;;;;;;;;5092311;28;19924;-56
2022/11/01 15:37:20;;;;;;;;;;;;;;;;;;5092199;28;19924;-55
2022/11/01 15:39:48;;;;;;;;;;;;;;;;;;5092501;28;19924;-53
2022/11/01 15:42:15;;;;;;;;;;;;;;;;;;5092539;28;19924;-60
2022/11/01 15:44:41;;;;;;;;;;;;;;;;;;5096539;28;19988;-57
2022/11/01 15:47:13;;;;;;;;;;;;;;;;;;5112827;28;19924;-55
2022/11/01 15:49:44;;;;;;;;;;;;;;;;;;5112789;28;20359;-57
2022/11/01 15:52:16;;;;;;;;;;;;;;;;;;5112152;28;19954;-56
2022/11/01 15:54:45;;;;;;;;;;;;;;;;;;5102687;28;19928;-55
2022/11/01 15:57:15;;;;;;;;;;;;;;;;;;5096301;28;19960;-56
2022/11/01 15:59:45;;;;;;;;;;;;;;;;;;5096231;28;19931;-57
2022/11/01 16:02:17;;;;;;;;;;;;;;;;;;5100564;28;20316;-52
2022/11/01 16:04:44;;;;;;;;;;;;;;;;;;5116123;28;19923;-54
2022/11/01 16:07:13;;;;;;;;;;;;;;;;;;5116379;27;19923;-56
2022/11/01 16:09:44;;;;;;;;;;;;;;;;;;5117005;28;20335;-56
2022/11/01 16:12:16;;;;;;;;;;;;;;;;;;5116601;28;19993;-55
2022/11/01 16:14:42;;;;;;;;;;;;;;;;;;5116123;28;20372;-55
2022/11/01 16:17:21;;;;;;;;;;;;;;;;;;5116550;28;20402;-56
2022/11/01 16:19:50;;;;;;;;;;;;;;;;;;5116485;28;19963;-58
2022/11/01 16:22:27;;;;;;;;;;;;;;;;;;5116117;28;19923;-55
2022/11/01 16:25:01;;;;;;;;;;;;;;;;;;5115592;28;19981;-56
2022/11/01 16:27:28;;;;;;;;;;;;;;;;;;5115438;28;19924;-55
2022/11/01 16:29:55;;;;;;;;;;;;;;;;;;5116198;28;20453;-52
2022/11/01 16:32:23;;;;;;;;;;;;;;;;;;5116090;27;20315;-59
2022/11/01 16:34:50;;;;;;;;;;;;;;;;;;5115883;28;19928;-58
2022/11/01 16:37:21;;;;;;;;;;;;;;;;;;5115380;28;19924;-57
2022/11/01 16:39:48;;;;;;;;;;;;;;;;;;5115522;28;19924;-57
2022/11/01 16:42:17;;;;;;;;;;;;;;;;;;5115771;28;19923;-65
2022/11/01 16:44:44;;;;;;;;;;;;;;;;;;5114443;28;19993;-66
2022/11/01 16:47:12;;;;;;;;;;;;;;;;;;5116160;28;19931;-58
2022/11/01 16:49:44;;;;;;;;;;;;;;;;;;5115803;28;20345;-60
2022/11/01 16:52:11;;;;;;;;;;;;;;;;;;5113317;28;19985;-55
2022/11/01 16:54:37;;;;;;;;;;;;;;;;;;5113626;28;20027;-56
2022/11/01 16:57:04;;;;;;;;;;;;;;;;;;5115002;28;20374;-54
2022/11/01 16:59:35;;;;;;;;;;;;;;;;;;5115012;27;19924;-54
2022/11/01 17:02:11;;;;;;;;;;;;;;;;;;5114911;28;19924;-55
2022/11/01 17:04:38;;;;;;;;;;;;;;;;;;5115118;28;19969;-53
2022/11/01 17:07:05;;;;;;;;;;;;;;;;;;5113913;28;19924;-53